Time;durP1;ratioP1;P1;durP2;ratioP2;P2;SDS_P1;SDS_P2;PMS_P1;PMS_P2;Temp;Humidity;BMP_temperature;BMP_pressure;BME280_temperature;BME280_humidity;BME280_pressure;Samples;Min_cycle;Max_cycle;Signal;HPM_P1;HPM_P2
2021/08/28 00:01:00;;;;;;;34.05;7.95;;;;;;;14.15;95.90;102231.28;6154500;23;20365;-78
2021/08/28 00:03:46;;;;;;;21.02;7.10;;;;;;;14.14;95.69;102227.72;6186327;23;20451;-79
2021/08/28 00:06:11;;;;;;;18.02;6.18;;;;;;;14.14;95.62;102219.78;6183843;23;20016;-79
2021/08/28 00:08:37;;;;;;;19.60;6.03;;;;;;;14.12;95.73;102218.88;6185396;23;20001;-79
2021/08/28 00:11:02;;;;;;;18.98;6.65;;;;;;;14.10;95.93;102223.22;6184913;23;20017;-78
2021/08/28 00:13:28;;;;;;;23.98;6.45;;;;;;;14.09;95.83;102224.06;6186324;23;20320;-82
2021/08/28 00:15:53;;;;;;;26.48;6.07;;;;;;;14.08;95.75;102221.38;6185034;23;20433;-79
2021/08/28 00:18:18;;;;;;;21.52;6.25;;;;;;;14.05;95.79;102219.56;6186419;23;20009;-82
2021/08/28 00:20:46;;;;;;;15.82;6.25;;;;;;;14.03;95.73;102216.00;6184847;23;20005;-79
2021/08/28 00:23:12;;;;;;;23.77;6.35;;;;;;;14.00;96.09;102215.91;6184759;23;20005;-78
2021/08/28 00:25:37;;;;;;;20.88;5.90;;;;;;;13.99;95.64;102215.00;6185148;23;20011;-83
2021/08/28 00:28:04;;;;;;;22.13;5.82;;;;;;;13.98;95.95;102213.25;6186357;23;20009;-83
2021/08/28 00:30:30;;;;;;;18.15;6.18;;;;;;;13.97;96.08;102206.16;6185586;23;20004;-81
2021/08/28 00:32:55;;;;;;;18.48;5.97;;;;;;;13.97;95.94;102215.81;6186253;23;20037;-80
2021/08/28 00:35:21;;;;;;;32.90;7.55;;;;;;;13.98;96.35;102212.31;6158173;23;20005;-81
2021/08/28 00:37:46;;;;;;;27.58;7.68;;;;;;;13.99;96.96;102209.72;6185094;23;20021;-78
2021/08/28 00:40:13;;;;;;;22.77;6.68;;;;;;;14.02;96.71;102211.53;6184796;23;20127;-80
2021/08/28 00:43:08;;;;;;;21.98;7.70;;;;;;;14.07;96.82;102209.91;6185316;23;20001;-78
2021/08/28 00:45:35;;;;;;;20.00;7.35;;;;;;;14.13;97.86;102218.00;6184004;23;20009;-82
2021/08/28 00:48:24;;;;;;;17.58;6.53;;;;;;;14.21;97.66;102218.16;6159940;23;20037;-80
2021/08/28 00:50:50;;;;;;;26.85;7.85;;;;;;;14.26;97.91;102213.00;6184009;23;20016;-81
2021/08/28 00:53:16;;;;;;;29.35;7.07;;;;;;;14.31;98.08;102222.84;6184602;23;20022;-84
2021/08/28 00:56:05;;;;;;;23.45;7.50;;;;;;;14.40;98.19;102216.84;6184693;23;20009;-81
2021/08/28 00:58:32;;;;;;;24.10;6.50;;;;;;;14.44;98.20;102221.34;6184577;23;20009;-80
2021/08/28 01:01:22;;;;;;;29.20;7.82;;;;;;;14.55;97.96;102215.41;6180203;23;20001;-78
2021/08/28 01:03:57;;;;;;;28.35;6.68;;;;;;;14.60;97.87;102216.41;6178919;23;20021;-80
2021/08/28 01:06:51;;;;;;;35.80;6.70;;;;;;;14.68;97.82;102222.81;6185485;23;20016;-80
2021/08/28 01:09:27;;;;;;;33.72;7.50;;;;;;;14.72;97.37;102227.31;6185248;23;20005;-80
2021/08/28 01:12:01;;;;;;;26.15;7.03;;;;;;;14.76;97.29;102210.63;6184656;23;20046;-83
2021/08/28 01:14:28;;;;;;;21.13;6.45;;;;;;;14.82;97.14;102209.84;6185273;23;20448;-79
2021/08/28 01:17:17;;;;;;;25.80;6.25;;;;;;;14.86;96.97;102216.13;6185074;23;20021;-80
2021/08/28 01:20:07;;;;;;;19.63;6.35;;;;;;;14.90;96.68;102202.06;6184389;23;20009;-81
2021/08/28 01:22:35;;;;;;;20.55;6.18;;;;;;;14.95;96.25;102211.00;6185292;23;20005;-84
2021/08/28 01:25:02;;;;;;;19.67;5.93;;;;;;;14.96;96.38;102208.38;6185706;23;20421;-83
2021/08/28 01:27:49;;;;;;;25.52;5.88;;;;;;;14.99;96.39;102208.44;6185498;23;20009;-81
2021/08/28 01:30:15;;;;;;;19.00;5.80;;;;;;;15.02;96.37;102218.22;6185689;23;20089;-80
2021/08/28 01:32:43;;;;;;;22.77;6.22;;;;;;;15.04;96.48;102219.13;6185469;23;20005;-81
2021/08/28 01:35:08;;;;;;;16.75;5.32;;;;;;;15.02;96.32;102212.91;6159183;23;20096;-84
2021/08/28 01:37:34;;;;;;;15.70;5.70;;;;;;;15.02;96.48;102218.22;6185678;23;20039;-81
2021/08/28 01:40:04;;;;;;;24.58;6.05;;;;;;;15.00;96.13;102219.91;6185025;23;20001;-81
2021/08/28 01:42:31;;;;;;;21.30;6.35;;;;;;;14.98;96.42;102216.38;6185627;23;20000;-82
2021/08/28 01:45:21;;;;;;;24.67;6.03;;;;;;;14.97;96.24;102206.63;6158181;23;20020;-81
2021/08/28 01:47:47;;;;;;;22.02;6.47;;;;;;;14.95;96.36;102209.25;6187733;23;20332;-83
2021/08/28 01:50:18;;;;;;;24.92;6.05;;;;;;;14.95;96.15;102211.00;6187250;23;20019;-83
2021/08/28 01:52:43;;;;;;;24.17;6.25;;;;;;;14.91;96.36;102204.75;6186895;23;20119;-83
2021/08/28 01:55:29;;;;;;;18.15;6.05;;;;;;;14.90;96.33;102213.53;6187571;23;20037;-81
2021/08/28 01:57:55;;;;;;;16.25;5.78;;;;;;;14.88;96.40;102214.38;6187504;23;20020;-81
2021/08/28 02:00:20;;;;;;;19.05;6.10;;;;;;;14.85;96.67;102212.56;6183416;23;20009;-80
2021/08/28 02:02:46;;;;;;;18.95;6.70;;;;;;;14.82;96.62;102212.50;6188737;23;20039;-80
2021/08/28 02:05:12;;;;;;;22.80;6.72;;;;;;;14.80;96.52;102215.13;6186723;23;20324;-79
2021/08/28 02:07:58;;;;;;;13.68;5.68;;;;;;;14.80;96.31;102212.47;6187111;23;20398;-80
2021/08/28 02:10:43;;;;;;;21.40;6.45;;;;;;;14.73;96.51;102210.56;6186493;23;20005;-78
2021/08/28 02:14:01;;;;;;;22.58;7.50;;;;;;;14.71;96.57;102225.50;6186636;23;20009;-80
2021/08/28 02:16:33;;;;;;;18.27;6.40;;;;;;;14.69;96.52;102221.94;6160781;23;20009;-79
2021/08/28 02:19:15;;;;;;;27.35;7.15;;;;;;;14.68;96.38;102222.81;6187367;23;20016;-76
2021/08/28 02:21:50;;;;;;;20.58;6.68;;;;;;;14.65;96.74;102228.94;6186998;23;20067;-79
2021/08/28 02:24:35;;;;;;;21.23;6.95;;;;;;;14.60;96.74;102230.53;6186424;23;20016;-80
2021/08/28 02:27:07;;;;;;;21.23;6.05;;;;;;;14.58;96.43;102223.41;6186589;23;20013;-77
2021/08/28 02:29:38;;;;;;;28.30;6.80;;;;;;;14.54;96.40;102218.91;6187119;23;20004;-84
2021/08/28 02:32:06;;;;;;;18.75;6.28;;;;;;;14.47;96.80;102224.09;6187302;23;20040;-81
2021/08/28 02:34:34;;;;;;;30.45;7.10;;;;;;;14.45;97.04;102220.50;6186444;23;20012;-79
2021/08/28 02:37:02;;;;;;;23.98;7.63;;;;;;;14.43;97.06;102219.59;6187265;23;20021;-81
2021/08/28 02:39:29;;;;;;;19.40;6.93;;;;;;;14.42;97.60;102220.44;6186644;23;20372;-77
2021/08/28 02:41:58;;;;;;;13.65;5.90;;;;;;;14.41;97.50;102223.06;6185799;23;20067;-82
2021/08/28 02:44:25;;;;;;;19.05;5.95;;;;;;;14.45;97.48;102214.31;6187526;23;20085;-83
2021/08/28 02:46:53;;;;;;;17.58;6.30;;;;;;;14.48;97.62;102217.03;6186208;23;20037;-82
2021/08/28 02:49:20;;;;;;;17.67;6.40;;;;;;;14.50;97.62;102216.22;6187301;23;20468;-81
2021/08/28 02:52:06;;;;;;;18.73;5.40;;;;;;;14.55;97.50;102215.41;6186586;23;20077;-81
2021/08/28 02:55:12;;;;;;;12.77;5.53;;;;;;;14.57;97.19;102213.66;6185976;23;20479;-78
2021/08/28 02:58:00;;;;;;;17.50;6.07;;;;;;;14.59;97.13;102211.97;6186108;23;20440;-81
2021/08/28 03:00:25;;;;;;;13.20;5.07;;;;;;;14.65;97.07;102217.44;6181618;23;20054;-82
2021/08/28 03:02:52;;;;;;;17.45;5.22;;;;;;;14.64;96.75;102213.00;6186705;23;20009;-83
2021/08/28 03:05:17;;;;;;;15.57;5.25;;;;;;;14.65;96.81;102213.03;6160883;23;20088;-79
2021/08/28 03:08:03;;;;;;;14.57;4.93;;;;;;;14.66;96.51;102209.53;6187203;23;20009;-81
2021/08/28 03:11:09;;;;;;;13.63;5.03;;;;;;;14.67;96.22;102199.81;6186184;23;20424;-81
2021/08/28 03:13:34;;;;;;;19.58;5.07;;;;;;;14.65;95.97;102198.91;6185670;23;20093;-80
2021/08/28 03:16:00;;;;;;;13.63;5.32;;;;;;;14.62;95.78;102201.44;6187017;23;20025;-78
2021/08/28 03:18:28;;;;;;;11.80;4.40;;;;;;;14.60;95.50;102203.16;6186071;23;20016;-78
2021/08/28 03:21:14;;;;;;;12.90;4.72;;;;;;;14.54;95.18;102203.03;6187098;23;20013;-79
2021/08/28 03:24:04;;;;;;;11.60;4.05;;;;;;;14.49;94.97;102195.88;6186183;23;20031;-79
2021/08/28 03:26:31;;;;;;;12.27;3.90;;;;;;;14.45;95.12;102194.00;6185985;23;20012;-81
2021/08/28 03:29:17;;;;;;;16.38;4.60;;;;;;;14.39;95.81;102204.50;6186002;23;20001;-83
2021/08/28 03:31:43;;;;;;;8.77;4.13;;;;;;;14.38;95.88;102210.63;6186649;23;20020;-79
2021/08/28 03:34:09;;;;;;;12.30;3.67;;;;;;;14.37;96.45;102205.31;6186140;23;20329;-78
2021/08/28 03:36:56;;;;;;;13.25;4.82;;;;;;;14.40;96.32;102208.00;6187176;23;20236;-80
2021/08/28 03:39:21;;;;;;;14.20;4.68;;;;;;;14.43;96.66;102206.34;6186184;23;20032;-78
2021/08/28 03:41:47;;;;;;;14.10;4.95;;;;;;;14.46;96.71;102211.69;6186076;23;20016;-80
2021/08/28 03:44:36;;;;;;;13.95;5.07;;;;;;;14.49;96.87;102209.13;6186956;23;20447;-81
2021/08/28 03:47:22;;;;;;;11.52;4.25;;;;;;;14.53;96.82;102209.16;6186108;23;20009;-79
2021/08/28 03:49:47;;;;;;;14.77;5.30;;;;;;;14.53;97.17;102210.09;6186660;23;20009;-80
2021/08/28 03:52:12;;;;;;;14.80;5.22;;;;;;;14.57;97.53;102208.38;6186480;23;20336;-80
2021/08/28 03:54:38;;;;;;;11.93;4.65;;;;;;;14.64;97.40;102211.25;6186616;23;20027;-81
2021/08/28 03:57:23;;;;;;;16.65;4.70;;;;;;;14.71;97.34;102219.34;6186434;23;20072;-80
2021/08/28 03:59:49;;;;;;;21.65;6.13;;;;;;;14.77;97.40;102206.19;6185703;23;20015;-79
2021/08/28 04:02:14;;;;;;;10.95;4.60;;;;;;;14.80;97.24;102207.16;6180623;23;20068;-80
2021/08/28 04:04:39;;;;;;;16.48;5.38;;;;;;;14.82;97.29;102204.53;6186658;23;20020;-84
2021/08/28 04:07:05;;;;;;;18.85;5.68;;;;;;;14.82;96.96;102202.78;6186375;23;20008;-79
2021/08/28 04:09:30;;;;;;;14.00;5.32;;;;;;;14.83;96.93;102209.88;6186010;23;20001;-79
2021/08/28 04:11:56;;;;;;;13.23;5.75;;;;;;;14.82;96.94;102210.72;6186015;23;20020;-81
2021/08/28 04:14:21;;;;;;;13.60;5.28;;;;;;;14.84;97.14;102216.97;6159705;23;20009;-80
2021/08/28 04:16:47;;;;;;;19.92;5.53;;;;;;;14.81;97.07;102208.97;6186158;23;20001;-78
2021/08/28 04:19:13;;;;;;;18.30;6.00;;;;;;;14.86;96.88;102210.81;6185722;23;20012;-79
2021/08/28 04:21:38;;;;;;;17.73;5.72;;;;;;;14.87;96.53;102205.53;6185457;23;20096;-81
2021/08/28 04:24:04;;;;;;;22.67;6.13;;;;;;;14.84;96.80;102206.38;6186329;23;20001;-81
2021/08/28 04:26:31;;;;;;;13.55;5.15;;;;;;;14.81;97.08;102208.97;6185825;23;20005;-80
2021/08/28 04:28:57;;;;;;;13.93;5.78;;;;;;;14.83;96.94;102206.34;6186228;23;20052;-79
2021/08/28 04:31:43;;;;;;;14.38;6.05;;;;;;;14.79;96.85;102204.50;6184793;23;20384;-82
2021/08/28 04:34:09;;;;;;;17.83;5.72;;;;;;;14.76;96.89;102215.91;6185540;23;20107;-80
2021/08/28 04:36:34;;;;;;;17.80;5.38;;;;;;;14.73;96.83;102210.56;6186163;23;20428;-80
2021/08/28 04:39:00;;;;;;;16.52;5.03;;;;;;;14.71;96.83;102216.69;6186825;23;20001;-81
2021/08/28 04:41:45;;;;;;;14.32;6.20;;;;;;;14.70;96.85;102210.47;6185709;23;20008;-80
2021/08/28 04:44:11;;;;;;;15.20;6.15;;;;;;;14.71;97.46;102217.56;6186043;23;20082;-78
2021/08/28 04:46:37;;;;;;;14.10;5.35;;;;;;;14.74;97.70;102222.91;6185944;23;20440;-82
2021/08/28 04:49:02;;;;;;;18.65;5.30;;;;;;;14.78;97.67;102214.16;6186811;23;19997;-80
2021/08/28 04:51:28;;;;;;;15.25;4.57;;;;;;;14.84;97.23;102216.09;6185646;23;20040;-82
2021/08/28 04:53:53;;;;;;;14.30;5.43;;;;;;;14.87;96.78;102223.19;6160325;23;20324;-80
2021/08/28 04:56:18;;;;;;;17.95;4.80;;;;;;;14.82;96.61;102210.72;6187174;23;20004;-81
2021/08/28 04:58:44;;;;;;;16.83;5.05;;;;;;;14.79;96.66;102220.38;6185729;23;20011;-81
2021/08/28 05:01:10;;;;;;;16.25;5.10;;;;;;;14.74;96.62;102216.75;6154141;23;20032;-79
2021/08/28 05:03:55;;;;;;;16.83;5.40;;;;;;;14.68;96.81;102228.09;6186765;23;20337;-80
2021/08/28 05:06:21;;;;;;;17.13;5.72;;;;;;;14.62;96.89;102233.22;6185932;23;20059;-79
2021/08/28 05:08:46;;;;;;;13.25;4.80;;;;;;;14.59;97.19;102234.03;6185387;23;20072;-80
2021/08/28 05:11:12;;;;;;;19.42;5.20;;;;;;;14.56;97.67;102233.09;6184602;23;20001;-77
2021/08/28 05:13:39;;;;;;;21.88;5.68;;;;;;;14.55;97.77;102233.97;6185839;23;20005;-80
2021/08/28 05:16:05;;;;;;;18.45;4.90;;;;;;;14.60;97.82;102240.25;6185361;23;20040;-78
2021/08/28 05:18:31;;;;;;;17.38;5.10;;;;;;;14.62;97.50;102239.44;6186157;23;20035;-80
2021/08/28 05:20:56;;;;;;;13.45;4.95;;;;;;;14.62;97.84;102235.88;6184091;23;20190;-80
2021/08/28 05:23:22;;;;;;;15.90;5.30;;;;;;;14.71;97.98;102232.59;6185501;23;20071;-81
2021/08/28 05:25:47;;;;;;;18.55;5.13;;;;;;;14.74;97.36;102237.94;6186134;23;20001;-82
2021/08/28 05:28:13;;;;;;;16.60;5.25;;;;;;;14.76;97.45;102247.72;6186303;23;20016;-80
2021/08/28 05:30:39;;;;;;;14.60;4.60;;;;;;;14.78;97.01;102240.66;6157999;23;20009;-83
2021/08/28 05:33:04;;;;;;;14.43;4.63;;;;;;;14.82;96.72;102245.19;6185699;23;20009;-80
2021/08/28 05:35:30;;;;;;;19.55;4.60;;;;;;;14.87;96.36;102239.06;6185055;23;20064;-80
2021/08/28 05:37:55;;;;;;;14.43;4.97;;;;;;;14.88;96.01;102239.13;6184175;23;20027;-82
2021/08/28 05:40:41;;;;;;;10.75;4.50;;;;;;;14.89;95.75;102240.03;6184924;23;20088;-80
2021/08/28 05:43:06;;;;;;;11.90;3.03;;;;;;;14.97;95.73;102239.31;6185252;23;20017;-78
2021/08/28 05:45:52;;;;;;;15.75;4.63;;;;;;;14.95;95.58;102234.88;6185408;23;20325;-84
2021/08/28 05:48:17;;;;;;;12.82;4.40;;;;;;;14.94;95.73;102244.56;6185694;23;20005;-79
2021/08/28 05:50:43;;;;;;;13.65;4.35;;;;;;;14.91;95.53;102239.19;6184630;23;20080;-78
2021/08/28 05:53:09;;;;;;;19.45;4.38;;;;;;;14.89;95.56;102247.97;6186128;23;20013;-83
2021/08/28 05:55:34;;;;;;;9.52;4.47;;;;;;;14.87;95.64;102254.97;6184661;23;20088;-83
2021/08/28 05:57:59;;;;;;;12.57;4.40;;;;;;;14.87;96.08;102258.53;6186012;23;20008;-81
2021/08/28 06:00:25;;;;;;;13.45;4.03;;;;;;;14.92;96.09;102256.91;6180179;23;20032;-81
2021/08/28 06:02:52;;;;;;;11.10;3.90;;;;;;;15.02;96.38;102257.97;6184902;23;20001;-81
2021/08/28 06:05:19;;;;;;;14.88;5.50;;;;;;;15.09;96.20;102256.34;6185856;23;20005;-83
2021/08/28 06:07:45;;;;;;;10.15;4.05;;;;;;;15.22;96.30;102257.47;6186195;23;20005;-81
2021/08/28 06:10:10;;;;;;;10.57;4.10;;;;;;;15.35;95.93;102259.50;6176931;23;20001;-81
2021/08/28 06:12:53;;;;;;;16.23;4.32;;;;;;;15.57;95.96;102255.53;6185823;23;20084;-79
2021/08/28 06:15:18;;;;;;;10.20;4.05;;;;;;;15.72;95.14;102248.69;6185266;23;20076;-82
2021/08/28 06:17:44;;;;;;;10.48;4.30;;;;;;;15.87;94.54;102248.09;6186560;23;20372;-83
2021/08/28 06:20:10;;;;;;;11.88;4.25;;;;;;;16.02;93.73;102254.56;6185978;23;20329;-85
2021/08/28 06:22:36;;;;;;;14.75;4.53;;;;;;;16.19;92.95;102249.50;6185960;23;20009;-79
2021/08/28 06:25:01;;;;;;;13.13;3.97;;;;;;;16.42;93.40;102256.06;6187091;23;20417;-82
2021/08/28 06:27:27;;;;;;;13.30;3.60;;;;;;;16.54;91.26;102252.72;6186218;23;20005;-80
2021/08/28 06:29:52;;;;;;;9.55;3.70;;;;;;;16.72;91.39;102252.94;6185627;23;20476;-81
2021/08/28 06:32:18;;;;;;;12.35;4.03;;;;;;;16.89;90.20;102254.94;6185714;23;20009;-85
2021/08/28 06:34:44;;;;;;;13.45;3.97;;;;;;;17.10;89.97;102244.59;6161635;23;20512;-81
2021/08/28 06:37:29;;;;;;;9.10;3.60;;;;;;;17.26;87.41;102245.69;6186733;23;20096;-84
2021/08/28 06:39:55;;;;;;;13.82;3.60;;;;;;;17.41;87.05;102250.28;6186793;23;20435;-79
2021/08/28 06:42:20;;;;;;;12.40;3.78;;;;;;;17.45;85.75;102246.78;6187678;23;20009;-80
2021/08/28 06:44:46;;;;;;;10.75;3.83;;;;;;;17.57;85.28;102246.03;6186953;23;20031;-83
2021/08/28 06:47:11;;;;;;;11.52;4.00;;;;;;;17.54;84.98;102235.34;6188409;23;20332;-83
2021/08/28 06:49:37;;;;;;;11.68;3.38;;;;;;;17.90;85.74;102246.31;6188242;23;20001;-81
2021/08/28 06:52:12;;;;;;;13.23;3.45;;;;;;;18.13;82.91;102238.53;6188729;23;20013;-80
2021/08/28 06:54:38;;;;;;;11.02;3.40;;;;;;;18.19;81.89;102236.81;6186728;23;20009;-81
2021/08/28 06:57:03;;;;;;;10.93;3.63;;;;;;;18.15;82.43;102240.34;6187751;23;20013;-85
2021/08/28 06:59:28;;;;;;;13.02;3.80;;;;;;;18.10;82.15;102239.41;6187702;23;20072;-80
2021/08/28 07:01:54;;;;;;;16.88;4.30;;;;;;;18.17;82.81;102246.56;6182838;23;20447;-82
2021/08/28 07:04:20;;;;;;;11.43;3.53;;;;;;;18.04;82.96;102250.00;6186241;23;20020;-80
2021/08/28 07:07:05;;;;;;;12.55;3.50;;;;;;;18.01;83.08;102252.66;6184129;23;20024;-81
2021/08/28 07:09:31;;;;;;;10.95;3.45;;;;;;;17.97;83.79;102248.19;6185242;23;20051;-86
2021/08/28 07:12:16;;;;;;;15.02;3.63;;;;;;;17.89;82.82;102245.41;6185617;23;20017;-87
2021/08/28 07:14:43;;;;;;;9.40;3.25;;;;;;;17.96;82.83;102249.06;6187410;23;20058;-82
2021/08/28 07:17:09;;;;;;;13.68;3.53;;;;;;;17.94;83.06;102248.16;6160323;23;20013;-79
2021/08/28 07:19:54;;;;;;;9.20;3.67;;;;;;;17.96;83.49;102254.38;6185720;23;20483;-79
2021/08/28 07:22:20;;;;;;;18.83;4.13;;;;;;;17.97;83.65;102256.16;6184596;23;20005;-82
2021/08/28 07:24:45;;;;;;;12.80;3.90;;;;;;;17.96;83.77;102251.72;6185862;23;20016;-83
2021/08/28 07:27:13;;;;;;;13.10;4.40;;;;;;;17.97;83.76;102257.09;6186843;23;20367;-88
2021/08/28 07:29:39;;;;;;;12.68;3.78;;;;;;;17.93;83.11;102255.25;6186185;23;20007;-82
2021/08/28 07:32:05;;;;;;;14.55;4.13;;;;;;;18.01;83.02;102258.91;6187959;23;20084;-82
2021/08/28 07:34:36;;;;;;;11.88;3.83;;;;;;;17.91;82.77;102261.44;6187430;23;20016;-82
2021/08/28 07:37:04;;;;;;;15.52;4.22;;;;;;;17.94;82.79;102256.16;6185141;23;20433;-86
2021/08/28 07:39:29;;;;;;;14.80;4.22;;;;;;;17.96;82.60;102260.63;6186204;23;20009;-82
2021/08/28 07:42:34;;;;;;;20.70;3.75;;;;;;;18.14;82.62;102253.66;6185407;23;20209;-83
2021/08/28 07:45:00;;;;;;;14.48;3.63;;;;;;;18.34;81.52;102251.16;6185210;23;20012;-81
2021/08/28 07:47:25;;;;;;;16.48;4.35;;;;;;;18.49;80.90;102255.69;6183889;23;20005;-82
2021/08/28 07:50:13;;;;;;;14.45;4.07;;;;;;;18.60;80.54;102253.06;6185925;23;19997;-79
2021/08/28 07:52:42;;;;;;;9.65;3.58;;;;;;;18.79;79.66;102257.63;6184109;23;20012;-79
2021/08/28 07:55:10;;;;;;;9.68;3.17;;;;;;;19.01;78.71;102255.97;6185658;23;20425;-79
2021/08/28 07:57:40;;;;;;;15.05;3.67;;;;;;;19.28;77.76;102253.41;6184422;23;20087;-85
2021/08/28 08:00:45;;;;;;;22.10;3.72;;;;;;;19.46;76.72;102245.44;6183069;23;20001;-83
2021/08/28 08:03:44;;;;;;;14.52;3.35;;;;;;;19.69;75.85;102245.47;6187466;23;20013;-88
2021/08/28 08:06:58;;;;;;;8.95;3.00;;;;;;;19.76;73.82;102245.47;6177446;23;20009;-85
2021/08/28 08:10:16;;;;;;;15.20;3.67;;;;;;;20.01;73.03;102243.75;6186741;23;20088;-86
2021/08/28 08:16:14;;;;;;;8.05;3.63;;;;;;;19.58;74.50;102262.38;6186255;23;20064;-80
2021/08/28 08:18:39;;;;;;;12.50;3.80;;;;;;;19.43;74.79;102255.22;6064972;23;20013;-86
2021/08/28 08:21:36;;;;;;;8.02;2.92;;;;;;;19.35;73.81;102263.19;6180529;23;20044;-83
2021/08/28 08:24:01;;;;;;;7.88;3.15;;;;;;;19.23;73.95;102265.84;6182603;23;20436;-81
2021/08/28 08:26:47;;;;;;;11.38;3.80;;;;;;;19.03;73.00;102258.63;6183552;23;20127;-85
2021/08/28 08:29:24;;;;;;;10.88;3.08;;;;;;;19.18;72.73;102271.13;6184654;23;20009;-78
2021/08/28 08:31:54;;;;;;;10.10;3.40;;;;;;;19.26;72.91;102261.41;6186791;23;20071;-79
2021/08/28 08:34:23;;;;;;;8.55;3.45;;;;;;;19.19;72.63;102271.19;6185829;23;20000;-80
2021/08/28 08:36:49;;;;;;;10.43;3.40;;;;;;;19.02;72.58;102273.75;6185769;23;20087;-80
2021/08/28 08:39:18;;;;;;;10.13;3.10;;;;;;;18.98;70.97;102265.75;6184215;23;20009;-85
2021/08/28 08:42:05;;;;;;;6.22;3.03;;;;;;;18.79;71.62;102259.41;6185801;23;20071;-83
2021/08/28 08:44:58;;;;;;;6.35;2.92;;;;;;;18.87;71.85;102279.88;6185301;23;20012;-86
2021/08/28 08:47:44;;;;;;;6.90;3.42;;;;;;;19.10;72.26;102278.22;6158390;23;20091;-79
2021/08/28 08:50:13;;;;;;;7.20;3.28;;;;;;;19.41;70.09;102271.25;6184659;23;20020;-81
2021/08/28 08:52:40;;;;;;;7.72;3.30;;;;;;;19.59;69.83;102266.81;6176638;23;20026;-80
2021/08/28 08:55:26;;;;;;;8.82;3.35;;;;;;;19.82;68.93;102266.91;6184381;23;20397;-83
2021/08/28 08:57:52;;;;;;;10.23;3.03;;;;;;;19.85;68.78;102273.13;6184934;23;20450;-83
2021/08/28 09:00:20;;;;;;;11.95;3.85;;;;;;;20.24;68.10;102264.19;6182448;23;20084;-79
2021/08/28 09:03:05;;;;;;;8.93;3.95;;;;;;;20.61;65.93;102258.81;6183748;23;20005;-83
2021/08/28 09:05:53;;;;;;;10.20;3.33;;;;;;;20.17;66.51;102266.91;6184655;23;20507;-82
2021/08/28 09:08:19;;;;;;;9.20;3.70;;;;;;;19.79;68.16;102267.75;6183733;23;20396;-82
2021/08/28 09:10:48;;;;;;;9.30;3.63;;;;;;;19.53;70.27;102289.97;6185069;23;20004;-81
2021/08/28 09:13:37;;;;;;;11.90;3.58;;;;;;;19.65;70.33;102280.19;6185098;23;20009;-84
2021/08/28 09:16:07;;;;;;;6.28;3.22;;;;;;;19.75;68.65;102268.63;6184346;23;20049;-81
2021/08/28 09:18:52;;;;;;;12.63;3.42;;;;;;;20.26;68.09;102275.78;6186196;23;20439;-85
2021/08/28 09:21:47;;;;;;;10.98;2.97;;;;;;;20.69;68.83;102286.44;6184512;23;20439;-80
2021/08/28 09:24:16;;;;;;;8.05;3.33;;;;;;;20.98;65.70;102264.06;6184760;23;20009;-82
2021/08/28 09:27:04;;;;;;;13.18;3.67;;;;;;;20.89;65.73;102281.06;6186752;23;20052;-82
2021/08/28 09:29:49;;;;;;;10.02;3.58;;;;;;;20.74;64.78;102265.03;6185089;23;20013;-83
2021/08/28 09:32:15;;;;;;;7.95;3.30;;;;;;;20.72;64.81;102275.75;6184220;23;20040;-82
2021/08/28 09:35:00;;;;;;;12.73;3.30;;;;;;;20.38;64.23;102279.34;6184085;23;20005;-86
2021/08/28 09:37:30;;;;;;;9.60;4.13;;;;;;;19.97;66.25;102272.22;6183406;23;20048;-81
2021/08/28 09:40:00;;;;;;;7.68;3.80;;;;;;;19.77;67.51;102277.53;6183088;23;20156;-84
2021/08/28 09:42:28;;;;;;;12.32;3.65;;;;;;;19.78;67.89;102284.66;6183470;23;20008;-83
2021/08/28 09:45:14;;;;;;;10.10;3.42;;;;;;;19.86;68.09;102284.72;6183528;23;20016;-81
2021/08/28 09:47:42;;;;;;;14.10;4.53;;;;;;;20.28;67.15;102293.63;6185121;23;20413;-82
2021/08/28 09:50:08;;;;;;;9.25;4.00;;;;;;;21.12;63.59;102278.28;6157078;23;20000;-82
2021/08/28 09:52:33;;;;;;;9.43;3.88;;;;;;;21.45;61.80;102276.31;6184435;23;20038;-82
2021/08/28 09:54:59;;;;;;;10.05;3.65;;;;;;;20.80;66.19;102292.66;6185308;23;20016;-78
2021/08/28 09:57:28;;;;;;;11.02;3.90;;;;;;;20.09;70.63;102302.50;6183962;23;20377;-85
2021/08/28 09:59:58;;;;;;;8.75;3.85;;;;;;;19.68;76.50;102318.47;6160195;23;20012;-79
2021/08/28 10:02:24;;;;;;;10.98;3.80;;;;;;;19.25;74.48;102312.09;6179836;23;20020;-86
2021/08/28 10:05:12;;;;;;;8.80;4.35;;;;;;;18.85;76.93;102315.44;6185706;23;20009;-85
2021/08/28 10:07:38;;;;;;;8.32;4.18;;;;;;;18.53;77.03;102306.34;6184169;23;20017;-82
2021/08/28 10:10:13;;;;;;;11.88;4.20;;;;;;;18.46;77.62;102314.28;6188192;23;20475;-83
2021/08/28 10:12:39;;;;;;;10.80;4.32;;;;;;;18.40;77.12;102309.81;6186375;23;20020;-80
2021/08/28 10:15:45;;;;;;;10.73;4.18;;;;;;;19.29;78.78;102319.22;6187324;23;20021;-78
2021/08/28 10:18:33;;;;;;;10.35;4.63;;;;;;;20.05;70.99;102293.63;6186119;23;20004;-81
2021/08/28 10:21:19;;;;;;;8.52;3.53;;;;;;;20.12;69.79;102295.41;6185800;23;20013;-81
2021/08/28 10:23:52;;;;;;;9.82;3.72;;;;;;;20.50;67.21;102278.44;6185925;23;20401;-85
2021/08/28 10:26:18;;;;;;;8.25;3.65;;;;;;;21.59;63.67;102278.94;6185581;23;20103;-81
2021/08/28 10:28:44;;;;;;;10.88;3.92;;;;;;;22.98;61.96;102271.38;6187139;23;20020;-85
2021/08/28 10:31:11;;;;;;;6.97;3.40;;;;;;;24.05;57.11;102257.34;6161712;23;20401;-87
2021/08/28 10:34:16;;;;;;;6.45;2.97;;;;;;;25.32;50.35;102238.69;6193203;23;20005;-83
2021/08/28 10:37:03;;;;;;;8.60;3.13;;;;;;;25.42;50.11;102241.16;6188037;23;20017;-84
2021/08/28 10:39:52;;;;;;;6.32;3.08;;;;;;;26.35;47.41;102243.38;6164936;23;20013;-85
2021/08/28 10:42:42;;;;;;;7.05;3.30;;;;;;;27.02;48.26;102245.97;6187378;23;20088;-82
2021/08/28 10:45:44;;;;;;;5.60;3.08;;;;;;;25.91;48.51;102252.56;6160571;23;20012;-85
2021/08/28 10:48:12;;;;;;;8.43;3.00;;;;;;;24.47;53.09;102259.28;6181446;23;20024;-86
2021/08/28 10:50:58;;;;;;;6.50;3.35;;;;;;;23.50;55.56;102272.53;6161938;23;20005;-82
2021/08/28 10:53:26;;;;;;;7.35;3.25;;;;;;;22.76;56.61;102276.13;6161403;23;20031;-81
2021/08/28 10:55:58;;;;;;;8.52;3.50;;;;;;;22.19;58.97;102281.16;6169239;23;20013;-83
2021/08/28 10:58:46;;;;;;;4.20;3.00;;;;;;;21.17;60.22;102281.78;6186120;23;20013;-85
2021/08/28 11:01:17;;;;;;;9.63;3.13;;;;;;;20.78;62.53;102283.75;6181844;23;20032;-83
2021/08/28 11:03:42;;;;;;;10.05;3.28;;;;;;;20.78;62.85;102288.19;6183354;23;20031;-82
2021/08/28 11:06:11;;;;;;;7.57;3.45;;;;;;;21.30;61.72;102289.81;6182605;23;20425;-81
2021/08/28 11:09:10;;;;;;;8.05;3.05;;;;;;;21.18;60.49;102283.59;6181962;23;20005;-80
2021/08/28 11:11:45;;;;;;;6.63;3.00;;;;;;;20.95;62.36;102285.47;6181738;23;20020;-81
2021/08/28 11:14:50;;;;;;;11.50;4.03;;;;;;;20.76;62.22;102288.22;6183677;23;20123;-83
2021/08/28 11:17:15;;;;;;;11.07;3.38;;;;;;;20.96;62.85;102292.59;6180422;23;20023;-79
2021/08/28 11:20:02;;;;;;;10.95;2.95;;;;;;;22.72;59.40;102288.69;6180872;23;20013;-80
2021/08/28 11:22:36;;;;;;;7.35;2.85;;;;;;;23.40;53.81;102279.84;6179328;23;20013;-81
2021/08/28 11:25:24;;;;;;;8.65;2.70;;;;;;;23.11;52.84;102266.78;6181692;23;20013;-84
2021/08/28 11:28:20;;;;;;;5.15;2.90;;;;;;;21.90;57.27;102274.22;6179984;23;20017;-80
2021/08/28 11:30:48;;;;;;;5.95;2.90;;;;;;;21.36;60.38;102282.59;6182523;23;20033;-82
2021/08/28 11:33:20;;;;;;;7.97;3.50;;;;;;;21.25;60.11;102287.13;6180706;23;20393;-82
2021/08/28 11:35:50;;;;;;;10.10;2.70;;;;;;;21.37;59.71;102288.84;6179443;23;20080;-80
2021/08/28 11:38:36;;;;;;;6.22;2.95;;;;;;;21.68;58.96;102291.38;6180762;23;20016;-81
2021/08/28 11:41:07;;;;;;;5.40;2.70;;;;;;;22.67;55.94;102282.50;6181310;23;20020;-77
2021/08/28 11:43:35;;;;;;;3.90;1.95;;;;;;;24.07;52.60;102271.66;6182784;23;20017;-80
2021/08/28 11:46:35;;;;;;;10.18;2.55;;;;;;;24.75;48.66;102248.88;6181578;23;20013;-84
2021/08/28 11:49:06;;;;;;;9.18;3.08;;;;;;;25.66;46.87;102251.41;6181896;23;20009;-83
2021/08/28 11:51:57;;;;;;;6.03;2.53;;;;;;;25.43;46.91;102247.44;6182457;23;20014;-82